sensor_id;sensor_type;location;lat;lon;timestamp;temperature;humidity
4374;DHT22;2201;51.100;6.814;2023-04-12T00:00:07;10.40;98.20
4374;DHT22;2201;51.100;6.814;2023-04-12T00:02:38;10.40;98.20
4374;DHT22;2201;51.100;6.814;2023-04-12T00:05:07;10.30;98.20
4374;DHT22;2201;51.100;6.814;2023-04-12T00:07:34;10.30;98.20
4374;DHT22;2201;51.100;6.814;2023-04-12T00:10:03;10.30;98.20
4374;DHT22;2201;51.100;6.814;2023-04-12T00:12:30;10.20;98.20
4374;DHT22;2201;51.100;6.814;2023-04-12T00:14:57;10.20;98.20
4374;DHT22;2201;51.100;6.814;2023-04-12T00:17:25;10.10;98.20
4374;DHT22;2201;51.100;6.814;2023-04-12T00:19:54;10.10;98.20
4374;DHT22;2201;51.100;6.814;2023-04-12T00:22:21;10.10;98.20
4374;DHT22;2201;51.100;6.814;2023-04-12T00:24:49;10.10;98.20
4374;DHT22;2201;51.100;6.814;2023-04-12T00:27:16;10.00;98.20
4374;DHT22;2201;51.100;6.814;2023-04-12T00:29:42;10.00;98.20
4374;DHT22;2201;51.100;6.814;2023-04-12T00:32:09;10.00;98.20
4374;DHT22;2201;51.100;6.814;2023-04-12T00:34:36;10.00;98.20
4374;DHT22;2201;51.100;6.814;2023-04-12T00:37:04;10.00;98.20
4374;DHT22;2201;51.100;6.814;2023-04-12T00:39:31;10.00;98.20
4374;DHT22;2201;51.100;6.814;2023-04-12T00:42:01;9.90;98.20
4374;DHT22;2201;51.100;6.814;2023-04-12T00:44:28;9.90;98.20
4374;DHT22;2201;51.100;6.814;2023-04-12T00:46:56;9.90;98.20
4374;DHT22;2201;51.100;6.814;2023-04-12T00:49:24;9.90;98.20
4374;DHT22;2201;51.100;6.814;2023-04-12T00:51:57;9.80;98.20
4374;DHT22;2201;51.100;6.814;2023-04-12T00:54:30;9.80;98.20
4374;DHT22;2201;51.100;6.814;2023-04-12T00:56:58;9.80;98.20
4374;DHT22;2201;51.100;6.814;2023-04-12T00:59:25;9.80;98.20
4374;DHT22;2201;51.100;6.814;2023-04-12T01:01:53;9.80;98.20
4374;DHT22;2201;51.100;6.814;2023-04-12T01:04:21;9.80;98.20
4374;DHT22;2201;51.100;6.814;2023-04-12T01:07:01;9.70;98.20
4374;DHT22;2201;51.100;6.814;2023-04-12T01:09:38;9.70;98.20
4374;DHT22;2201;51.100;6.814;2023-04-12T01:12:13;9.70;98.20
4374;DHT22;2201;51.100;6.814;2023-04-12T01:14:46;9.60;98.20
4374;DHT22;2201;51.100;6.814;2023-04-12T01:17:19;9.60;98.20
4374;DHT22;2201;51.100;6.814;2023-04-12T01:19:55;9.60;98.20
4374;DHT22;2201;51.100;6.814;2023-04-12T01:22:35;9.50;98.20
4374;DHT22;2201;51.100;6.814;2023-04-12T01:25:16;9.50;98.20
4374;DHT22;2201;51.100;6.814;2023-04-12T01:27:53;9.50;98.20
4374;DHT22;2201;51.100;6.814;2023-04-12T01:30:20;9.50;98.20
4374;DHT22;2201;51.100;6.814;2023-04-12T01:32:49;9.50;98.20
4374;DHT22;2201;51.100;6.814;2023-04-12T01:35:18;9.40;98.20
4374;DHT22;2201;51.100;6.814;2023-04-12T01:37:46;9.40;98.20
4374;DHT22;2201;51.100;6.814;2023-04-12T01:40:13;9.40;98.20
4374;DHT22;2201;51.100;6.814;2023-04-12T01:42:41;9.40;98.20
4374;DHT22;2201;51.100;6.814;2023-04-12T01:45:10;9.40;98.20
4374;DHT22;2201;51.100;6.814;2023-04-12T01:47:37;9.30;98.20
4374;DHT22;2201;51.100;6.814;2023-04-12T01:50:13;9.30;98.20
4374;DHT22;2201;51.100;6.814;2023-04-12T01:52:45;9.30;98.20
4374;DHT22;2201;51.100;6.814;2023-04-12T01:55:16;9.20;98.20
4374;DHT22;2201;51.100;6.814;2023-04-12T01:57:46;9.30;98.20
4374;DHT22;2201;51.100;6.814;2023-04-12T02:00:16;9.30;98.20
4374;DHT22;2201;51.100;6.814;2023-04-12T02:02:43;9.30;98.20
4374;DHT22;2201;51.100;6.814;2023-04-12T02:05:10;9.30;98.20
4374;DHT22;2201;51.100;6.814;2023-04-12T02:07:38;9.30;98.20
4374;DHT22;2201;51.100;6.814;2023-04-12T02:10:06;9.30;98.20
4374;DHT22;2201;51.100;6.814;2023-04-12T02:12:32;9.20;98.20
4374;DHT22;2201;51.100;6.814;2023-04-12T02:14:59;9.20;98.20
4374;DHT22;2201;51.100;6.814;2023-04-12T02:17:28;9.20;98.20
4374;DHT22;2201;51.100;6.814;2023-04-12T02:19:55;9.20;98.20
4374;DHT22;2201;51.100;6.814;2023-04-12T02:22:22;9.20;98.20
4374;DHT22;2201;51.100;6.814;2023-04-12T02:24:49;9.20;98.20
4374;DHT22;2201;51.100;6.814;2023-04-12T02:27:16;9.20;98.20
4374;DHT22;2201;51.100;6.814;2023-04-12T02:29:43;9.20;98.20
4374;DHT22;2201;51.100;6.814;2023-04-12T02:32:10;9.20;98.20
4374;DHT22;2201;51.100;6.814;2023-04-12T02:34:38;9.20;98.20
4374;DHT22;2201;51.100;6.814;2023-04-12T02:37:06;9.20;98.20
4374;DHT22;2201;51.100;6.814;2023-04-12T02:39:33;9.20;98.20
4374;DHT22;2201;51.100;6.814;2023-04-12T02:42:01;9.10;98.20
4374;DHT22;2201;51.100;6.814;2023-04-12T02:44:28;9.10;98.20
4374;DHT22;2201;51.100;6.814;2023-04-12T02:46:55;9.10;98.20
4374;DHT22;2201;51.100;6.814;2023-04-12T02:49:22;9.10;98.20
4374;DHT22;2201;51.100;6.814;2023-04-12T02:51:51;9.10;98.20
4374;DHT22;2201;51.100;6.814;2023-04-12T02:54:18;9.10;98.20
4374;DHT22;2201;51.100;6.814;2023-04-12T02:56:45;9.10;98.20
4374;DHT22;2201;51.100;6.814;2023-04-12T02:59:12;9.00;98.20
4374;DHT22;2201;51.100;6.814;2023-04-12T03:01:39;9.00;98.20
4374;DHT22;2201;51.100;6.814;2023-04-12T03:04:10;9.00;98.20
4374;DHT22;2201;51.100;6.814;2023-04-12T03:06:37;9.00;98.20
4374;DHT22;2201;51.100;6.814;2023-04-12T03:09:18;9.00;98.20
4374;DHT22;2201;51.100;6.814;2023-04-12T03:11:46;9.00;98.20
4374;DHT22;2201;51.100;6.814;2023-04-12T03:14:13;9.00;98.20
4374;DHT22;2201;51.100;6.814;2023-04-12T03:16:40;9.00;98.20
4374;DHT22;2201;51.100;6.814;2023-04-12T03:19:07;9.00;98.20
4374;DHT22;2201;51.100;6.814;2023-04-12T03:21:35;9.00;98.20
4374;DHT22;2201;51.100;6.814;2023-04-12T03:24:05;9.00;98.20
4374;DHT22;2201;51.100;6.814;2023-04-12T03:26:34;9.00;98.20
4374;DHT22;2201;51.100;6.814;2023-04-12T03:29:02;9.00;98.20
4374;DHT22;2201;51.100;6.814;2023-04-12T03:31:30;9.00;98.20
4374;DHT22;2201;51.100;6.814;2023-04-12T03:33:57;9.00;98.20
4374;DHT22;2201;51.100;6.814;2023-04-12T03:36:24;8.90;98.20
4374;DHT22;2201;51.100;6.814;2023-04-12T03:38:54;8.90;98.20
4374;DHT22;2201;51.100;6.814;2023-04-12T03:41:21;8.80;98.20
4374;DHT22;2201;51.100;6.814;2023-04-12T03:43:50;8.80;98.20
4374;DHT22;2201;51.100;6.814;2023-04-12T03:46:18;8.80;98.20
4374;DHT22;2201;51.100;6.814;2023-04-12T03:48:45;8.80;98.20
4374;DHT22;2201;51.100;6.814;2023-04-12T03:51:12;8.80;98.20
4374;DHT22;2201;51.100;6.814;2023-04-12T03:53:40;8.70;98.20
4374;DHT22;2201;51.100;6.814;2023-04-12T03:56:07;8.70;98.20
4374;DHT22;2201;51.100;6.814;2023-04-12T03:58:35;8.70;98.20
4374;DHT22;2201;51.100;6.814;2023-04-12T04:01:03;8.70;98.20
4374;DHT22;2201;51.100;6.814;2023-04-12T04:03:31;8.70;98.20
4374;DHT22;2201;51.100;6.814;2023-04-12T04:05:59;8.70;98.20
4374;DHT22;2201;51.100;6.814;2023-04-12T04:08:27;8.70;98.20
4374;DHT22;2201;51.100;6.814;2023-04-12T04:10:55;8.70;98.20
4374;DHT22;2201;51.100;6.814;2023-04-12T04:13:22;8.70;98.20
4374;DHT22;2201;51.100;6.814;2023-04-12T04:15:55;8.80;98.20
4374;DHT22;2201;51.100;6.814;2023-04-12T04:18:26;8.80;98.20
4374;DHT22;2201;51.100;6.814;2023-04-12T04:20:53;8.80;98.20
4374;DHT22;2201;51.100;6.814;2023-04-12T04:23:32;8.80;98.20
4374;DHT22;2201;51.100;6.814;2023-04-12T04:26:10;8.80;98.20
4374;DHT22;2201;51.100;6.814;2023-04-12T04:28:39;8.80;98.20
4374;DHT22;2201;51.100;6.814;2023-04-12T04:31:10;8.80;98.20
4374;DHT22;2201;51.100;6.814;2023-04-12T04:33:39;8.80;98.20
4374;DHT22;2201;51.100;6.814;2023-04-12T04:36:07;8.70;98.20
4374;DHT22;2201;51.100;6.814;2023-04-12T04:38:35;8.70;98.20
4374;DHT22;2201;51.100;6.814;2023-04-12T04:41:10;8.70;98.20
4374;DHT22;2201;51.100;6.814;2023-04-12T04:43:42;8.70;98.20
4374;DHT22;2201;51.100;6.814;2023-04-12T04:46:11;8.70;98.20
4374;DHT22;2201;51.100;6.814;2023-04-12T04:48:39;8.70;98.20
4374;DHT22;2201;51.100;6.814;2023-04-12T04:51:07;8.70;98.20
4374;DHT22;2201;51.100;6.814;2023-04-12T04:53:48;8.60;98.20
4374;DHT22;2201;51.100;6.814;2023-04-12T04:56:14;8.60;98.20
4374;DHT22;2201;51.100;6.814;2023-04-12T04:58:41;8.60;98.20
4374;DHT22;2201;51.100;6.814;2023-04-12T05:01:09;8.60;98.20
4374;DHT22;2201;51.100;6.814;2023-04-12T05:03:44;8.60;98.20
4374;DHT22;2201;51.100;6.814;2023-04-12T05:06:11;8.60;98.20
4374;DHT22;2201;51.100;6.814;2023-04-12T05:08:38;8.60;98.20
4374;DHT22;2201;51.100;6.814;2023-04-12T05:11:05;8.60;98.20
4374;DHT22;2201;51.100;6.814;2023-04-12T05:13:32;8.60;98.20
4374;DHT22;2201;51.100;6.814;2023-04-12T05:15:59;8.60;98.20
4374;DHT22;2201;51.100;6.814;2023-04-12T05:18:26;8.60;98.20
4374;DHT22;2201;51.100;6.814;2023-04-12T05:21:00;8.60;98.20
4374;DHT22;2201;51.100;6.814;2023-04-12T05:26:42;8.60;98.20
4374;DHT22;2201;51.100;6.814;2023-04-12T05:29:15;8.60;98.20
4374;DHT22;2201;51.100;6.814;2023-04-12T05:31:42;8.60;98.20
4374;DHT22;2201;51.100;6.814;2023-04-12T05:34:15;8.60;98.20
4374;DHT22;2201;51.100;6.814;2023-04-12T05:36:46;8.60;98.20
4374;DHT22;2201;51.100;6.814;2023-04-12T05:39:13;8.60;98.20
4374;DHT22;2201;51.100;6.814;2023-04-12T05:41:40;8.60;98.20
4374;DHT22;2201;51.100;6.814;2023-04-12T05:44:07;8.60;98.20
4374;DHT22;2201;51.100;6.814;2023-04-12T05:46:34;8.60;98.20
4374;DHT22;2201;51.100;6.814;2023-04-12T05:49:00;8.60;98.20
4374;DHT22;2201;51.100;6.814;2023-04-12T05:51:27;8.60;98.20
4374;DHT22;2201;51.100;6.814;2023-04-12T05:53:55;8.70;98.20
4374;DHT22;2201;51.100;6.814;2023-04-12T05:56:25;8.70;98.20
4374;DHT22;2201;51.100;6.814;2023-04-12T05:58:55;8.70;98.20
4374;DHT22;2201;51.100;6.814;2023-04-12T06:01:52;8.70;98.20
4374;DHT22;2201;51.100;6.814;2023-04-12T06:07:30;8.70;98.20
4374;DHT22;2201;51.100;6.814;2023-04-12T06:10:15;8.80;98.20
4374;DHT22;2201;51.100;6.814;2023-04-12T06:16:06;8.80;98.20
4374;DHT22;2201;51.100;6.814;2023-04-12T06:18:33;8.70;98.20
4374;DHT22;2201;51.100;6.814;2023-04-12T06:21:00;8.70;98.20
4374;DHT22;2201;51.100;6.814;2023-04-12T06:23:27;8.70;98.20
4374;DHT22;2201;51.100;6.814;2023-04-12T06:26:17;8.70;98.20
4374;DHT22;2201;51.100;6.814;2023-04-12T06:28:43;8.80;98.20
4374;DHT22;2201;51.100;6.814;2023-04-12T06:31:10;8.80;98.20
4374;DHT22;2201;51.100;6.814;2023-04-12T06:33:45;8.70;98.20
4374;DHT22;2201;51.100;6.814;2023-04-12T06:36:23;8.80;98.20
4374;DHT22;2201;51.100;6.814;2023-04-12T06:38:50;8.80;98.20
4374;DHT22;2201;51.100;6.814;2023-04-12T06:41:21;8.70;98.20
4374;DHT22;2201;51.100;6.814;2023-04-12T06:43:47;8.80;98.20
4374;DHT22;2201;51.100;6.814;2023-04-12T06:46:15;8.80;98.20
4374;DHT22;2201;51.100;6.814;2023-04-12T06:48:43;8.80;98.20
4374;DHT22;2201;51.100;6.814;2023-04-12T06:51:11;8.80;98.20
4374;DHT22;2201;51.100;6.814;2023-04-12T06:53:40;8.80;98.20
4374;DHT22;2201;51.100;6.814;2023-04-12T06:56:08;8.80;98.20
4374;DHT22;2201;51.100;6.814;2023-04-12T06:58:38;8.80;98.20
4374;DHT22;2201;51.100;6.814;2023-04-12T07:01:06;8.90;98.20
4374;DHT22;2201;51.100;6.814;2023-04-12T07:03:36;8.90;98.20
4374;DHT22;2201;51.100;6.814;2023-04-12T07:06:04;8.90;98.20
4374;DHT22;2201;51.100;6.814;2023-04-12T07:08:37;9.00;98.20
4374;DHT22;2201;51.100;6.814;2023-04-12T07:11:07;9.00;98.20
4374;DHT22;2201;51.100;6.814;2023-04-12T07:13:41;9.00;98.20
4374;DHT22;2201;51.100;6.814;2023-04-12T07:16:12;9.00;98.20
4374;DHT22;2201;51.100;6.814;2023-04-12T07:18:43;9.10;98.20
4374;DHT22;2201;51.100;6.814;2023-04-12T07:21:16;9.10;98.20
4374;DHT22;2201;51.100;6.814;2023-04-12T07:23:47;9.10;98.20
4374;DHT22;2201;51.100;6.814;2023-04-12T07:26:22;9.10;98.20
4374;DHT22;2201;51.100;6.814;2023-04-12T07:28:53;9.10;98.20
4374;DHT22;2201;51.100;6.814;2023-04-12T07:31:22;9.10;98.20
4374;DHT22;2201;51.100;6.814;2023-04-12T07:33:50;9.10;98.20
4374;DHT22;2201;51.100;6.814;2023-04-12T07:36:21;9.10;98.20
4374;DHT22;2201;51.100;6.814;2023-04-12T07:38:48;9.20;98.20
4374;DHT22;2201;51.100;6.814;2023-04-12T07:41:20;9.30;98.20
4374;DHT22;2201;51.100;6.814;2023-04-12T07:43:48;9.30;98.20
4374;DHT22;2201;51.100;6.814;2023-04-12T07:46:18;9.30;98.20
4374;DHT22;2201;51.100;6.814;2023-04-12T07:48:51;9.30;98.20
4374;DHT22;2201;51.100;6.814;2023-04-12T07:51:19;9.40;98.20
4374;DHT22;2201;51.100;6.814;2023-04-12T07:53:46;9.40;98.20
4374;DHT22;2201;51.100;6.814;2023-04-12T07:56:14;9.30;98.20
4374;DHT22;2201;51.100;6.814;2023-04-12T07:58:41;9.40;98.20
4374;DHT22;2201;51.100;6.814;2023-04-12T08:01:10;9.40;98.20
4374;DHT22;2201;51.100;6.814;2023-04-12T08:03:41;9.40;98.20
4374;DHT22;2201;51.100;6.814;2023-04-12T08:06:09;9.40;98.20
4374;DHT22;2201;51.100;6.814;2023-04-12T08:08:36;9.40;98.20
4374;DHT22;2201;51.100;6.814;2023-04-12T08:11:08;9.50;98.20
4374;DHT22;2201;51.100;6.814;2023-04-12T08:13:36;9.50;98.20
4374;DHT22;2201;51.100;6.814;2023-04-12T08:16:07;9.60;98.20
4374;DHT22;2201;51.100;6.814;2023-04-12T08:18:34;9.70;98.20
4374;DHT22;2201;51.100;6.814;2023-04-12T08:21:12;9.70;98.20
4374;DHT22;2201;51.100;6.814;2023-04-12T08:23:39;9.80;98.20
4374;DHT22;2201;51.100;6.814;2023-04-12T08:26:08;9.90;98.20
4374;DHT22;2201;51.100;6.814;2023-04-12T08:28:36;10.00;98.20
4374;DHT22;2201;51.100;6.814;2023-04-12T08:31:04;10.00;98.20
4374;DHT22;2201;51.100;6.814;2023-04-12T08:33:31;10.10;98.20
4374;DHT22;2201;51.100;6.814;2023-04-12T08:35:59;10.20;98.20
4374;DHT22;2201;51.100;6.814;2023-04-12T08:38:28;10.20;98.20
4374;DHT22;2201;51.100;6.814;2023-04-12T08:40:56;10.20;98.20
4374;DHT22;2201;51.100;6.814;2023-04-12T08:43:27;10.20;98.20
4374;DHT22;2201;51.100;6.814;2023-04-12T08:45:56;10.10;98.20
4374;DHT22;2201;51.100;6.814;2023-04-12T08:48:25;10.10;98.20
4374;DHT22;2201;51.100;6.814;2023-04-12T08:50:55;10.20;98.20
4374;DHT22;2201;51.100;6.814;2023-04-12T08:53:23;10.20;98.20
4374;DHT22;2201;51.100;6.814;2023-04-12T08:55:52;10.20;98.20
4374;DHT22;2201;51.100;6.814;2023-04-12T08:58:20;10.30;98.20
4374;DHT22;2201;51.100;6.814;2023-04-12T09:00:48;10.40;98.20
4374;DHT22;2201;51.100;6.814;2023-04-12T09:03:16;10.40;98.20
4374;DHT22;2201;51.100;6.814;2023-04-12T09:05:44;10.40;98.20
4374;DHT22;2201;51.100;6.814;2023-04-12T09:08:12;10.30;98.20
4374;DHT22;2201;51.100;6.814;2023-04-12T09:10:42;10.40;98.20
4374;DHT22;2201;51.100;6.814;2023-04-12T09:13:38;10.40;98.20
4374;DHT22;2201;51.100;6.814;2023-04-12T09:16:07;10.40;98.20
4374;DHT22;2201;51.100;6.814;2023-04-12T09:18:47;10.50;98.20
4374;DHT22;2201;51.100;6.814;2023-04-12T09:21:16;10.50;98.20
4374;DHT22;2201;51.100;6.814;2023-04-12T09:24:02;10.60;98.20
4374;DHT22;2201;51.100;6.814;2023-04-12T09:26:30;10.70;98.20
4374;DHT22;2201;51.100;6.814;2023-04-12T09:29:02;10.70;98.20
4374;DHT22;2201;51.100;6.814;2023-04-12T09:31:30;10.80;98.20
4374;DHT22;2201;51.100;6.814;2023-04-12T09:34:13;11.00;98.20
4374;DHT22;2201;51.100;6.814;2023-04-12T09:36:41;10.90;98.20
4374;DHT22;2201;51.100;6.814;2023-04-12T09:39:09;10.90;98.20
4374;DHT22;2201;51.100;6.814;2023-04-12T09:41:36;10.90;98.20
4374;DHT22;2201;51.100;6.814;2023-04-12T09:44:05;10.90;98.20
4374;DHT22;2201;51.100;6.814;2023-04-12T09:46:32;10.80;98.20
4374;DHT22;2201;51.100;6.814;2023-04-12T09:49:01;10.80;98.20
4374;DHT22;2201;51.100;6.814;2023-04-12T09:51:32;10.90;98.20
4374;DHT22;2201;51.100;6.814;2023-04-12T09:54:05;10.80;98.20
4374;DHT22;2201;51.100;6.814;2023-04-12T09:56:58;10.90;98.20
4374;DHT22;2201;51.100;6.814;2023-04-12T09:59:48;11.00;98.20
4374;DHT22;2201;51.100;6.814;2023-04-12T10:02:18;11.00;98.20
4374;DHT22;2201;51.100;6.814;2023-04-12T10:04:47;11.00;98.20
4374;DHT22;2201;51.100;6.814;2023-04-12T10:07:14;11.10;98.20
4374;DHT22;2201;51.100;6.814;2023-04-12T10:09:42;11.20;98.20
4374;DHT22;2201;51.100;6.814;2023-04-12T10:12:13;11.30;98.20
4374;DHT22;2201;51.100;6.814;2023-04-12T10:14:42;11.50;98.20
4374;DHT22;2201;51.100;6.814;2023-04-12T10:17:12;11.50;98.20
4374;DHT22;2201;51.100;6.814;2023-04-12T10:19:40;11.50;98.20
4374;DHT22;2201;51.100;6.814;2023-04-12T10:22:07;11.60;98.20
4374;DHT22;2201;51.100;6.814;2023-04-12T10:24:34;11.60;98.20
4374;DHT22;2201;51.100;6.814;2023-04-12T10:30:21;11.70;98.20
4374;DHT22;2201;51.100;6.814;2023-04-12T10:33:18;11.70;98.20
4374;DHT22;2201;51.100;6.814;2023-04-12T10:35:57;11.70;98.20
4374;DHT22;2201;51.100;6.814;2023-04-12T10:38:26;11.70;98.20
4374;DHT22;2201;51.100;6.814;2023-04-12T10:41:11;11.70;98.20
4374;DHT22;2201;51.100;6.814;2023-04-12T10:43:38;11.70;98.20
4374;DHT22;2201;51.100;6.814;2023-04-12T10:46:06;11.70;98.20
4374;DHT22;2201;51.100;6.814;2023-04-12T10:48:35;11.80;98.20
4374;DHT22;2201;51.100;6.814;2023-04-12T10:51:12;11.90;98.20
4374;DHT22;2201;51.100;6.814;2023-04-12T10:53:39;12.00;98.20
4374;DHT22;2201;51.100;6.814;2023-04-12T10:56:33;12.10;98.20
4374;DHT22;2201;51.100;6.814;2023-04-12T10:59:01;12.10;98.20
4374;DHT22;2201;51.100;6.814;2023-04-12T11:01:28;12.10;98.20
4374;DHT22;2201;51.100;6.814;2023-04-12T11:04:09;12.20;98.20
4374;DHT22;2201;51.100;6.814;2023-04-12T11:06:53;12.30;98.20
4374;DHT22;2201;51.100;6.814;2023-04-12T11:09:23;12.50;98.20
4374;DHT22;2201;51.100;6.814;2023-04-12T11:11:56;12.70;98.20
4374;DHT22;2201;51.100;6.814;2023-04-12T11:14:27;12.90;98.20
4374;DHT22;2201;51.100;6.814;2023-04-12T11:17:22;13.10;98.20
4374;DHT22;2201;51.100;6.814;2023-04-12T11:19:55;13.30;98.20
4374;DHT22;2201;51.100;6.814;2023-04-12T11:22:24;13.30;98.20
4374;DHT22;2201;51.100;6.814;2023-04-12T11:24:53;13.40;98.20
4374;DHT22;2201;51.100;6.814;2023-04-12T11:27:21;13.30;98.20
4374;DHT22;2201;51.100;6.814;2023-04-12T11:29:49;13.40;98.20
4374;DHT22;2201;51.100;6.814;2023-04-12T11:32:17;13.50;98.20
4374;DHT22;2201;51.100;6.814;2023-04-12T11:34:45;13.60;98.20
4374;DHT22;2201;51.100;6.814;2023-04-12T11:37:17;13.80;98.20
4374;DHT22;2201;51.100;6.814;2023-04-12T11:39:45;14.20;98.20
4374;DHT22;2201;51.100;6.814;2023-04-12T11:42:13;14.60;98.20
4374;DHT22;2201;51.100;6.814;2023-04-12T11:44:41;14.80;98.20
4374;DHT22;2201;51.100;6.814;2023-04-12T11:47:13;15.00;98.20
4374;DHT22;2201;51.100;6.814;2023-04-12T11:49:44;15.20;98.20
4374;DHT22;2201;51.100;6.814;2023-04-12T11:52:12;15.50;98.20
4374;DHT22;2201;51.100;6.814;2023-04-12T11:54:45;15.60;98.20
4374;DHT22;2201;51.100;6.814;2023-04-12T11:57:13;15.80;98.20
4374;DHT22;2201;51.100;6.814;2023-04-12T11:59:43;16.00;98.20
4374;DHT22;2201;51.100;6.814;2023-04-12T12:02:10;16.20;98.20
4374;DHT22;2201;51.100;6.814;2023-04-12T12:04:39;16.20;98.20
4374;DHT22;2201;51.100;6.814;2023-04-12T12:07:07;16.30;98.20
4374;DHT22;2201;51.100;6.814;2023-04-12T12:09:35;16.30;98.20
4374;DHT22;2201;51.100;6.814;2023-04-12T12:12:04;16.20;98.20
4374;DHT22;2201;51.100;6.814;2023-04-12T12:14:33;16.20;98.20
4374;DHT22;2201;51.100;6.814;2023-04-12T12:17:08;16.10;98.20
4374;DHT22;2201;51.100;6.814;2023-04-12T12:19:37;16.10;98.20
4374;DHT22;2201;51.100;6.814;2023-04-12T12:22:06;16.10;98.20
4374;DHT22;2201;51.100;6.814;2023-04-12T12:24:33;16.10;98.20
4374;DHT22;2201;51.100;6.814;2023-04-12T12:27:01;16.10;98.20
4374;DHT22;2201;51.100;6.814;2023-04-12T12:29:38;16.20;98.20
4374;DHT22;2201;51.100;6.814;2023-04-12T12:32:11;16.20;98.20
4374;DHT22;2201;51.100;6.814;2023-04-12T12:34:40;16.20;97.80
4374;DHT22;2201;51.100;6.814;2023-04-12T12:37:12;16.20;97.80
4374;DHT22;2201;51.100;6.814;2023-04-12T12:39:39;16.20;97.80
4374;DHT22;2201;51.100;6.814;2023-04-12T12:42:24;16.30;98.20
4374;DHT22;2201;51.100;6.814;2023-04-12T12:44:53;16.20;95.70
4374;DHT22;2201;51.100;6.814;2023-04-12T12:47:19;16.10;96.90
4374;DHT22;2201;51.100;6.814;2023-04-12T12:49:46;16.10;97.00
4374;DHT22;2201;51.100;6.814;2023-04-12T12:52:13;16.10;97.00
4374;DHT22;2201;51.100;6.814;2023-04-12T12:54:39;16.10;97.70
4374;DHT22;2201;51.100;6.814;2023-04-12T12:57:06;16.10;98.10
4374;DHT22;2201;51.100;6.814;2023-04-12T12:59:33;16.10;96.40
4374;DHT22;2201;51.100;6.814;2023-04-12T13:02:01;16.10;97.30
4374;DHT22;2201;51.100;6.814;2023-04-12T13:04:28;16.20;98.20
4374;DHT22;2201;51.100;6.814;2023-04-12T13:06:55;16.50;98.20
4374;DHT22;2201;51.100;6.814;2023-04-12T13:09:21;16.90;97.40
4374;DHT22;2201;51.100;6.814;2023-04-12T13:11:48;17.20;95.10
4374;DHT22;2201;51.100;6.814;2023-04-12T13:14:15;17.60;91.80
4374;DHT22;2201;51.100;6.814;2023-04-12T13:16:42;17.80;91.90
4374;DHT22;2201;51.100;6.814;2023-04-12T13:19:11;17.90;93.00
4374;DHT22;2201;51.100;6.814;2023-04-12T13:21:41;18.00;91.00
4374;DHT22;2201;51.100;6.814;2023-04-12T13:24:17;18.00;90.10
4374;DHT22;2201;51.100;6.814;2023-04-12T13:26:44;17.90;90.10
4374;DHT22;2201;51.100;6.814;2023-04-12T13:29:11;17.70;90.30
4374;DHT22;2201;51.100;6.814;2023-04-12T13:31:38;17.40;89.20
4374;DHT22;2201;51.100;6.814;2023-04-12T13:34:04;17.20;91.30
4374;DHT22;2201;51.100;6.814;2023-04-12T13:36:32;17.00;91.60
4374;DHT22;2201;51.100;6.814;2023-04-12T13:38:59;16.90;91.50
4374;DHT22;2201;51.100;6.814;2023-04-12T13:41:26;16.70;92.30
4374;DHT22;2201;51.100;6.814;2023-04-12T13:43:55;16.50;93.50
4374;DHT22;2201;51.100;6.814;2023-04-12T13:46:22;16.30;93.40
4374;DHT22;2201;51.100;6.814;2023-04-12T13:48:49;16.00;94.50
4374;DHT22;2201;51.100;6.814;2023-04-12T13:57:20;15.70;96.10
4374;DHT22;2201;51.100;6.814;2023-04-12T13:59:46;15.70;97.20
4374;DHT22;2201;51.100;6.814;2023-04-12T14:02:13;15.70;96.50
4374;DHT22;2201;51.100;6.814;2023-04-12T14:04:49;15.70;95.70
4374;DHT22;2201;51.100;6.814;2023-04-12T14:07:17;15.60;96.10
4374;DHT22;2201;51.100;6.814;2023-04-12T14:09:43;15.40;96.00
4374;DHT22;2201;51.100;6.814;2023-04-12T14:12:10;15.20;94.40
4374;DHT22;2201;51.100;6.814;2023-04-12T14:14:39;14.80;96.40
4374;DHT22;2201;51.100;6.814;2023-04-12T14:17:05;14.40;98.10
4374;DHT22;2201;51.100;6.814;2023-04-12T14:19:32;13.90;98.20
4374;DHT22;2201;51.100;6.814;2023-04-12T14:22:02;13.50;98.20
4374;DHT22;2201;51.100;6.814;2023-04-12T14:24:49;13.20;98.20
4374;DHT22;2201;51.100;6.814;2023-04-12T14:27:15;12.90;98.20
4374;DHT22;2201;51.100;6.814;2023-04-12T14:29:48;12.70;98.20
4374;DHT22;2201;51.100;6.814;2023-04-12T14:32:15;12.60;98.20
4374;DHT22;2201;51.100;6.814;2023-04-12T14:34:42;12.80;98.20
4374;DHT22;2201;51.100;6.814;2023-04-12T14:37:09;13.10;98.20
4374;DHT22;2201;51.100;6.814;2023-04-12T14:39:36;13.30;98.20
4374;DHT22;2201;51.100;6.814;2023-04-12T14:42:05;13.60;98.20
4374;DHT22;2201;51.100;6.814;2023-04-12T14:44:32;14.00;98.20
4374;DHT22;2201;51.100;6.814;2023-04-12T14:47:00;14.40;98.20
4374;DHT22;2201;51.100;6.814;2023-04-12T14:49:27;14.60;98.20
4374;DHT22;2201;51.100;6.814;2023-04-12T14:51:55;14.80;98.20
4374;DHT22;2201;51.100;6.814;2023-04-12T14:54:22;14.80;98.20
4374;DHT22;2201;51.100;6.814;2023-04-12T14:56:49;14.80;98.20
4374;DHT22;2201;51.100;6.814;2023-04-12T14:59:16;14.80;98.20
4374;DHT22;2201;51.100;6.814;2023-04-12T15:01:43;14.80;98.20
4374;DHT22;2201;51.100;6.814;2023-04-12T15:04:11;15.00;98.20
4374;DHT22;2201;51.100;6.814;2023-04-12T15:06:38;15.10;98.20
4374;DHT22;2201;51.100;6.814;2023-04-12T15:09:07;15.10;98.20
4374;DHT22;2201;51.100;6.814;2023-04-12T15:11:34;15.20;98.20
4374;DHT22;2201;51.100;6.814;2023-04-12T15:14:03;15.10;98.20
4374;DHT22;2201;51.100;6.814;2023-04-12T15:16:31;14.90;98.20
4374;DHT22;2201;51.100;6.814;2023-04-12T15:18:59;14.70;98.20
4374;DHT22;2201;51.100;6.814;2023-04-12T15:21:27;14.40;98.20
4374;DHT22;2201;51.100;6.814;2023-04-12T15:23:54;14.20;98.20
4374;DHT22;2201;51.100;6.814;2023-04-12T15:26:22;14.20;98.20
4374;DHT22;2201;51.100;6.814;2023-04-12T15:28:49;14.20;98.20
4374;DHT22;2201;51.100;6.814;2023-04-12T15:31:16;14.10;98.20
4374;DHT22;2201;51.100;6.814;2023-04-12T15:33:43;13.90;98.20
4374;DHT22;2201;51.100;6.814;2023-04-12T15:36:11;14.00;98.20
4374;DHT22;2201;51.100;6.814;2023-04-12T15:38:42;14.00;98.20
4374;DHT22;2201;51.100;6.814;2023-04-12T15:41:09;13.90;98.20
4374;DHT22;2201;51.100;6.814;2023-04-12T15:43:36;13.90;98.20
4374;DHT22;2201;51.100;6.814;2023-04-12T15:46:03;13.80;98.20
4374;DHT22;2201;51.100;6.814;2023-04-12T15:48:30;13.90;98.20
4374;DHT22;2201;51.100;6.814;2023-04-12T15:50:57;14.10;98.20
4374;DHT22;2201;51.100;6.814;2023-04-12T15:53:25;14.10;98.20
4374;DHT22;2201;51.100;6.814;2023-04-12T15:55:54;14.00;98.20
4374;DHT22;2201;51.100;6.814;2023-04-12T15:58:21;13.90;98.20
4374;DHT22;2201;51.100;6.814;2023-04-12T16:00:47;13.80;98.20
4374;DHT22;2201;51.100;6.814;2023-04-12T16:03:17;13.70;98.20
4374;DHT22;2201;51.100;6.814;2023-04-12T16:05:47;13.50;98.20
4374;DHT22;2201;51.100;6.814;2023-04-12T16:08:16;13.50;98.20
4374;DHT22;2201;51.100;6.814;2023-04-12T16:10:46;13.40;98.20
4374;DHT22;2201;51.100;6.814;2023-04-12T16:13:14;13.30;98.20
4374;DHT22;2201;51.100;6.814;2023-04-12T16:15:41;13.10;98.20
4374;DHT22;2201;51.100;6.814;2023-04-12T16:18:08;12.90;98.20
4374;DHT22;2201;51.100;6.814;2023-04-12T16:20:35;12.70;96.20
4374;DHT22;2201;51.100;6.814;2023-04-12T16:23:02;12.60;96.70
4374;DHT22;2201;51.100;6.814;2023-04-12T16:25:30;12.40;96.50
4374;DHT22;2201;51.100;6.814;2023-04-12T16:30:42;12.10;96.60
4374;DHT22;2201;51.100;6.814;2023-04-12T16:33:15;12.00;98.20
4374;DHT22;2201;51.100;6.814;2023-04-12T16:35:43;12.10;98.20
4374;DHT22;2201;51.100;6.814;2023-04-12T16:38:11;12.20;98.20
4374;DHT22;2201;51.100;6.814;2023-04-12T16:40:39;12.30;98.20
4374;DHT22;2201;51.100;6.814;2023-04-12T16:43:07;12.30;97.50
4374;DHT22;2201;51.100;6.814;2023-04-12T16:45:39;12.30;98.20